PWSweather.com
Personal Weather Stations
Station Observations
PRATO
PratoIT 59100

PratoIT 59100

Lat: 43.8956799, Lon: 11.0845155

Elevation: 164

Station Type: Davis Vantage Vue

http://www.meteoprato.it

Latest ConditionsUpdated 10:00:00 PM GMT+01:01 Sunday, Nov 17, 2019
Currently Today's Max Today's Min Today's Average
Temperature 49.5°F9.7°C 60.8°F16.0°C 44.0°F6.7°C 51.6°F10.9°C
Dew Point 46.1°F7.8°C 53.1°F11.7°C 42.4°F5.8°C 47.3°F8.5°C
Winds 1.0 mph SW1.6 kmh SW 16.4 mph -26.4 kmh - - 4.8 mph 7.7 kmh
Wind Gusts 6.0 mph9.7 kmh 32.0 mph51.5 kmh - -
Humidity 88% 97% 68% 86%
Pressure 29.76 in1007.8 mb 29.76 in1007.8 mb 29.47 in998.0 mb -
Precipitation - 1.69 in42.9 mm - -
Hour Temp Dew Point Humidity Winds Wind Gusts Pressure Precip Precip Rate Daily Precip Total
10:00 PM 49.5°F9.7°C 46.1°F7.8°C 88% 1.0 mph SW1.6 kmh SW 6.0 mph9.7 kmh 29.76 in1007.8 mb 0.02 in0.5 mm 0.00 in0.0 mm 1.69 in42.9 mm
09:55 PM 49.5°F9.7°C 46.1°F7.8°C 88% 0.7 mph SW1.1 kmh SW 6.0 mph9.7 kmh 29.76 in1007.8 mb 0.02 in0.5 mm 0.00 in0.0 mm 1.69 in42.9 mm
09:50 PM 49.6°F9.8°C 46.2°F7.9°C 88% 0.6 mph SW1.0 kmh SW 6.0 mph9.7 kmh 29.76 in1007.8 mb 0.02 in0.5 mm 0.00 in0.0 mm 1.69 in42.9 mm
09:45 PM 49.7°F9.8°C 46.3°F7.9°C 88% 1.6 mph S2.6 kmh S 4.0 mph6.4 kmh 29.76 in1007.8 mb 0.02 in0.5 mm 0.00 in0.0 mm 1.69 in42.9 mm
09:40 PM 49.8°F9.9°C 46.4°F8.0°C 88% 2.4 mph SSW3.9 kmh SSW 7.0 mph11.3 kmh 29.76 in1007.8 mb 0.02 in0.5 mm 0.00 in0.0 mm 1.69 in42.9 mm
09:35 PM 49.9°F9.9°C 46.5°F8.1°C 88% 2.5 mph SW4.0 kmh SW 7.0 mph11.3 kmh 29.76 in1007.8 mb 0.02 in0.5 mm 0.12 in3.0 mm 1.69 in42.9 mm
09:30 PM 50.0°F10.0°C 46.3°F7.9°C 87% 2.0 mph SW3.2 kmh SW 8.0 mph12.9 kmh 29.76 in1007.8 mb 0.01 in0.3 mm 0.12 in3.0 mm 1.69 in42.9 mm
09:25 PM 49.9°F9.9°C 46.2°F7.9°C 87% 1.3 mph SW2.1 kmh SW 8.0 mph12.9 kmh 29.76 in1007.8 mb 0.00 in0.0 mm 0.00 in0.0 mm 1.68 in42.7 mm
09:20 PM 49.9°F9.9°C 46.2°F7.9°C 87% 1.0 mph SW1.6 kmh SW 6.0 mph9.7 kmh 29.75 in1007.5 mb 0.00 in0.0 mm 0.00 in0.0 mm 1.68 in42.7 mm
09:15 PM 50.0°F10.0°C 46.3°F7.9°C 87% 1.2 mph SW1.9 kmh SW 5.0 mph8.0 kmh 29.75 in1007.5 mb 0.00 in0.0 mm 0.00 in0.0 mm 1.68 in42.7 mm
09:10 PM 50.1°F10.1°C 46.4°F8.0°C 87% 1.5 mph SW2.4 kmh SW 5.0 mph8.0 kmh 29.75 in1007.5 mb 0.00 in0.0 mm 0.00 in0.0 mm 1.68 in42.7 mm
09:05 PM 50.1°F10.1°C 46.4°F8.0°C 87% 1.6 mph SW2.6 kmh SW 5.0 mph8.0 kmh 29.75 in1007.5 mb 0.00 in0.0 mm 0.00 in0.0 mm 1.68 in42.7 mm
09:00 PM 50.1°F10.1°C 46.4°F8.0°C 87% 1.4 mph SSW2.3 kmh SSW 5.0 mph8.0 kmh 29.75 in1007.5 mb 0.00 in0.0 mm 0.00 in0.0 mm 1.68 in42.7 mm
08:55 PM 50.2°F10.1°C 46.5°F8.1°C 87% 1.1 mph SSW1.8 kmh SSW 5.0 mph8.0 kmh 29.75 in1007.5 mb 0.00 in0.0 mm 0.00 in0.0 mm 1.68 in42.7 mm
08:50 PM 50.3°F10.2°C 46.6°F8.1°C 87% 1.0 mph SW1.6 kmh SW 5.0 mph8.0 kmh 29.75 in1007.5 mb 0.00 in0.0 mm 0.00 in0.0 mm 1.68 in42.7 mm
08:45 PM 50.3°F10.2°C 46.6°F8.1°C 87% 1.0 mph SW1.6 kmh SW 6.0 mph9.7 kmh 29.75 in1007.5 mb 0.00 in0.0 mm 0.00 in0.0 mm 1.68 in42.7 mm
08:40 PM 50.4°F10.2°C 46.7°F8.2°C 87% 1.3 mph SW2.1 kmh SW 6.0 mph9.7 kmh 29.75 in1007.5 mb 0.00 in0.0 mm 0.00 in0.0 mm 1.68 in42.7 mm
08:35 PM 50.4°F10.2°C 46.7°F8.2°C 87% 1.3 mph SW2.1 kmh SW 6.0 mph9.7 kmh 29.75 in1007.5 mb 0.00 in0.0 mm 0.00 in0.0 mm 1.68 in42.7 mm
08:30 PM 50.5°F10.3°C 46.8°F8.2°C 87% 1.5 mph SW2.4 kmh SW 6.0 mph9.7 kmh 29.75 in1007.5 mb 0.00 in0.0 mm 0.00 in0.0 mm 1.68 in42.7 mm
08:25 PM 50.6°F10.3°C 46.9°F8.3°C 87% 1.5 mph SW2.4 kmh SW 5.0 mph8.0 kmh 29.75 in1007.5 mb 0.00 in0.0 mm 0.00 in0.0 mm 1.68 in42.7 mm
08:20 PM 50.7°F10.4°C 47.0°F8.3°C 87% 1.0 mph SW1.6 kmh SW 5.0 mph8.0 kmh 29.75 in1007.5 mb 0.00 in0.0 mm 0.00 in0.0 mm 1.68 in42.7 mm
08:15 PM 50.8°F10.4°C 47.1°F8.4°C 87% 1.5 mph SW2.4 kmh SW 4.0 mph6.4 kmh 29.74 in1007.1 mb 0.00 in0.0 mm 0.00 in0.0 mm 1.68 in42.7 mm
08:10 PM 50.9°F10.5°C 47.2°F8.4°C 87% 1.9 mph SSW3.1 kmh SSW 5.0 mph8.0 kmh 29.74 in1007.1 mb 0.00 in0.0 mm 0.00 in0.0 mm 1.68 in42.7 mm
08:05 PM 50.9°F10.5°C 47.2°F8.4°C 87% 1.6 mph SW2.6 kmh SW 6.0 mph9.7 kmh 29.73 in1006.8 mb 0.00 in0.0 mm 0.00 in0.0 mm 1.68 in42.7 mm
08:00 PM 50.9°F10.5°C 47.5°F8.6°C 88% 1.6 mph SW2.6 kmh SW 6.0 mph9.7 kmh 29.73 in1006.8 mb 0.00 in0.0 mm 0.00 in0.0 mm 1.68 in42.7 mm
07:55 PM 50.9°F10.5°C 47.5°F8.6°C 88% 1.7 mph SW2.7 kmh SW 5.0 mph8.0 kmh 29.73 in1006.8 mb 0.00 in0.0 mm 0.00 in0.0 mm 1.68 in42.7 mm
07:50 PM 50.9°F10.5°C 47.5°F8.6°C 88% 1.7 mph SW2.7 kmh SW 5.0 mph8.0 kmh 29.73 in1006.8 mb 0.00 in0.0 mm 0.00 in0.0 mm 1.68 in42.7 mm
07:45 PM 50.8°F10.4°C 47.7°F8.7°C 89% 1.4 mph SSW2.3 kmh SSW 5.0 mph8.0 kmh 29.73 in1006.8 mb 0.00 in0.0 mm 0.00 in0.0 mm 1.68 in42.7 mm
07:40 PM 50.7°F10.4°C 47.6°F8.7°C 89% 0.7 mph SSW1.1 kmh SSW 5.0 mph8.0 kmh 29.73 in1006.8 mb 0.00 in0.0 mm 0.00 in0.0 mm 1.68 in42.7 mm
07:35 PM 50.5°F10.3°C 47.7°F8.7°C 90% 0.2 mph SSW0.3 kmh SSW 5.0 mph8.0 kmh 29.73 in1006.8 mb 0.00 in0.0 mm 0.00 in0.0 mm 1.68 in42.7 mm
07:30 PM 50.4°F10.2°C 47.9°F8.8°C 91% Calm Calm 2.0 mph3.2 kmh 29.73 in1006.8 mb 0.00 in0.0 mm 0.00 in0.0 mm 1.68 in42.7 mm
07:25 PM 50.3°F10.2°C 47.8°F8.8°C 91% Calm Calm -- 29.72 in1006.4 mb 0.00 in0.0 mm 0.00 in0.0 mm 1.68 in42.7 mm
07:20 PM 50.3°F10.2°C 47.8°F8.8°C 91% Calm Calm -- 29.73 in1006.8 mb 0.00 in0.0 mm 0.00 in0.0 mm 1.68 in42.7 mm
07:15 PM 50.2°F10.1°C 47.7°F8.7°C 91% Calm Calm -- 29.72 in1006.4 mb 0.00 in0.0 mm 0.00 in0.0 mm 1.68 in42.7 mm
07:10 PM 50.2°F10.1°C 47.7°F8.7°C 91% Calm Calm -- 29.72 in1006.4 mb 0.00 in0.0 mm 0.00 in0.0 mm 1.68 in42.7 mm
07:05 PM 50.2°F10.1°C 47.7°F8.7°C 91% Calm Calm -- 29.71 in1006.1 mb 0.00 in0.0 mm 0.00 in0.0 mm 1.68 in42.7 mm
07:00 PM 50.2°F10.1°C 48.0°F8.9°C 92% Calm Calm -- 29.72 in1006.4 mb 0.00 in0.0 mm 0.00 in0.0 mm 1.68 in42.7 mm
06:55 PM 50.0°F10.0°C 47.5°F8.6°C 91% Calm Calm -- 29.72 in1006.4 mb 0.00 in0.0 mm 0.00 in0.0 mm 1.68 in42.7 mm
06:50 PM 50.0°F10.0°C 47.5°F8.6°C 91% Calm Calm -- 29.72 in1006.4 mb 0.00 in0.0 mm 0.00 in0.0 mm 1.68 in42.7 mm
06:45 PM 49.9°F9.9°C 47.4°F8.6°C 91% Calm Calm -- 29.72 in1006.4 mb 0.00 in0.0 mm 0.00 in0.0 mm 1.68 in42.7 mm
06:40 PM 50.0°F10.0°C 47.5°F8.6°C 91% Calm Calm -- 29.72 in1006.4 mb 0.00 in0.0 mm 0.00 in0.0 mm 1.68 in42.7 mm
06:35 PM 50.0°F10.0°C 47.5°F8.6°C 91% Calm Calm -- 29.72 in1006.4 mb 0.00 in0.0 mm 0.00 in0.0 mm 1.68 in42.7 mm
06:30 PM 49.9°F9.9°C 47.4°F8.6°C 91% Calm Calm -- 29.72 in1006.4 mb 0.00 in0.0 mm 0.00 in0.0 mm 1.68 in42.7 mm
06:25 PM 50.0°F10.0°C 47.2°F8.4°C 90% Calm Calm -- 29.71 in1006.1 mb 0.00 in0.0 mm 0.00 in0.0 mm 1.68 in42.7 mm
06:20 PM 50.3°F10.2°C 47.2°F8.4°C 89% Calm Calm -- 29.71 in1006.1 mb 0.00 in0.0 mm 0.00 in0.0 mm 1.68 in42.7 mm
06:15 PM 50.7°F10.4°C 47.9°F8.8°C 90% Calm Calm -- 29.71 in1006.1 mb 0.01 in0.3 mm 0.00 in0.0 mm 1.68 in42.7 mm
06:10 PM 50.8°F10.4°C 47.7°F8.7°C 89% Calm Calm -- 29.70 in1005.8 mb 0.02 in0.5 mm 0.00 in0.0 mm 1.68 in42.7 mm
06:05 PM 51.0°F10.6°C 47.6°F8.7°C 88% Calm Calm -- 29.71 in1006.1 mb 0.04 in1.0 mm 0.00 in0.0 mm 1.68 in42.7 mm
06:00 PM 51.2°F10.7°C 47.8°F8.8°C 88% Calm Calm -- 29.70 in1005.8 mb 0.04 in1.0 mm 0.00 in0.0 mm 1.68 in42.7 mm
05:55 PM 51.2°F10.7°C 47.5°F8.6°C 87% Calm Calm -- 29.70 in1005.8 mb 0.04 in1.0 mm 0.00 in0.0 mm 1.68 in42.7 mm
05:50 PM 51.3°F10.7°C 47.6°F8.7°C 87% Calm Calm -- 29.70 in1005.8 mb 0.04 in1.0 mm 0.00 in0.0 mm 1.68 in42.7 mm
05:45 PM 51.4°F10.8°C 47.4°F8.6°C 86% Calm Calm -- 29.70 in1005.8 mb 0.04 in1.0 mm 0.00 in0.0 mm 1.68 in42.7 mm
05:40 PM 51.5°F10.8°C 47.5°F8.6°C 86% Calm Calm -- 29.70 in1005.8 mb 0.04 in1.0 mm 0.00 in0.0 mm 1.68 in42.7 mm
05:35 PM 51.6°F10.9°C 47.2°F8.4°C 85% Calm Calm -- 29.70 in1005.8 mb 0.04 in1.0 mm 0.00 in0.0 mm 1.68 in42.7 mm
05:30 PM 51.7°F10.9°C 46.7°F8.2°C 83% 0.4 mph 0.6 kmh -- 29.70 in1005.8 mb 0.04 in1.0 mm 0.00 in0.0 mm 1.68 in42.7 mm
05:25 PM 52.1°F11.2°C 47.1°F8.4°C 83% 1.3 mph WSW2.1 kmh WSW 2.0 mph3.2 kmh 29.70 in1005.8 mb 0.04 in1.0 mm 0.00 in0.0 mm 1.68 in42.7 mm
05:20 PM 52.3°F11.3°C 47.0°F8.3°C 82% 1.8 mph WSW2.9 kmh WSW 3.0 mph4.8 kmh 29.70 in1005.8 mb 0.04 in1.0 mm 0.12 in3.0 mm 1.68 in42.7 mm
05:15 PM 52.6°F11.4°C 46.6°F8.1°C 80% 1.1 mph WSW1.8 kmh WSW 5.0 mph8.0 kmh 29.70 in1005.8 mb 0.03 in0.8 mm 0.24 in6.1 mm 1.67 in42.4 mm
05:10 PM 53.1°F11.7°C 46.4°F8.0°C 78% 0.3 mph SW0.5 kmh SW 5.0 mph8.0 kmh 29.70 in1005.8 mb 0.01 in0.3 mm 0.12 in3.0 mm 1.65 in41.9 mm
05:05 PM 53.2°F11.8°C 46.5°F8.1°C 78% Calm Calm -- 29.69 in1005.4 mb 0.00 in0.0 mm 0.00 in0.0 mm 1.64 in41.7 mm
05:00 PM 53.2°F11.8°C 45.8°F7.7°C 76% 0.4 mph 0.6 kmh -- 29.69 in1005.4 mb 0.00 in0.0 mm 0.00 in0.0 mm 1.64 in41.7 mm
04:55 PM 53.2°F11.8°C 45.8°F7.7°C 76% 1.3 mph WSW2.1 kmh WSW 3.0 mph4.8 kmh 29.69 in1005.4 mb 0.00 in0.0 mm 0.00 in0.0 mm 1.64 in41.7 mm
04:50 PM 53.3°F11.8°C 45.9°F7.7°C 76% 2.4 mph SW3.9 kmh SW 6.0 mph9.7 kmh 29.68 in1005.1 mb 0.00 in0.0 mm 0.00 in0.0 mm 1.64 in41.7 mm
04:45 PM 53.4°F11.9°C 45.7°F7.6°C 75% 2.6 mph WSW4.2 kmh WSW 6.0 mph9.7 kmh 29.68 in1005.1 mb 0.00 in0.0 mm 0.00 in0.0 mm 1.64 in41.7 mm
04:40 PM 53.4°F11.9°C 45.3°F7.4°C 74% 2.7 mph WSW4.3 kmh WSW 4.0 mph6.4 kmh 29.68 in1005.1 mb 0.00 in0.0 mm 0.00 in0.0 mm 1.64 in41.7 mm
04:35 PM 53.6°F12.0°C 45.5°F7.5°C 74% 2.9 mph WSW4.7 kmh WSW 4.0 mph6.4 kmh 29.68 in1005.1 mb 0.00 in0.0 mm 0.00 in0.0 mm 1.64 in41.7 mm
04:30 PM 53.8°F12.1°C 45.3°F7.4°C 73% 2.4 mph WSW3.9 kmh WSW 6.0 mph9.7 kmh 29.68 in1005.1 mb 0.00 in0.0 mm 0.00 in0.0 mm 1.64 in41.7 mm
04:25 PM 54.0°F12.2°C 45.2°F7.3°C 72% 2.0 mph WSW3.2 kmh WSW 6.0 mph9.7 kmh 29.68 in1005.1 mb 0.00 in0.0 mm 0.00 in0.0 mm 1.64 in41.7 mm
04:20 PM 54.3°F12.4°C 45.1°F7.3°C 71% 2.3 mph WSW3.7 kmh WSW 5.0 mph8.0 kmh 29.68 in1005.1 mb 0.00 in0.0 mm 0.00 in0.0 mm 1.64 in41.7 mm
04:15 PM 54.6°F12.6°C 45.4°F7.4°C 71% 2.8 mph WSW4.5 kmh WSW 5.0 mph8.0 kmh 29.67 in1004.7 mb 0.00 in0.0 mm 0.00 in0.0 mm 1.64 in41.7 mm
04:10 PM 54.7°F12.6°C 45.5°F7.5°C 71% 3.1 mph WSW5.0 kmh WSW 5.0 mph8.0 kmh 29.67 in1004.7 mb 0.00 in0.0 mm 0.00 in0.0 mm 1.64 in41.7 mm
04:05 PM 54.7°F12.6°C 45.5°F7.5°C 71% 3.6 mph SW5.8 kmh SW 7.0 mph11.3 kmh 29.68 in1005.1 mb 0.00 in0.0 mm 0.00 in0.0 mm 1.64 in41.7 mm
04:00 PM 54.8°F12.7°C 45.2°F7.3°C 70% 4.0 mph SW6.4 kmh SW 8.0 mph12.9 kmh 29.67 in1004.7 mb 0.00 in0.0 mm 0.00 in0.0 mm 1.64 in41.7 mm
03:55 PM 54.7°F12.6°C 45.1°F7.3°C 70% 4.5 mph SW7.2 kmh SW 9.0 mph14.5 kmh 29.66 in1004.4 mb 0.00 in0.0 mm 0.00 in0.0 mm 1.64 in41.7 mm
03:50 PM 54.8°F12.7°C 45.2°F7.3°C 70% 5.0 mph SW8.0 kmh SW 9.0 mph14.5 kmh 29.66 in1004.4 mb 0.00 in0.0 mm 0.00 in0.0 mm 1.64 in41.7 mm
03:45 PM 55.0°F12.8°C 45.4°F7.4°C 70% 4.6 mph WSW7.4 kmh WSW 10.0 mph16.1 kmh 29.66 in1004.4 mb 0.00 in0.0 mm 0.00 in0.0 mm 1.64 in41.7 mm
03:40 PM 55.4°F13.0°C 45.0°F7.2°C 68% 3.9 mph SW6.3 kmh SW 10.0 mph16.1 kmh 29.66 in1004.4 mb 0.00 in0.0 mm 0.00 in0.0 mm 1.64 in41.7 mm
03:35 PM 55.9°F13.3°C 45.9°F7.7°C 69% 3.6 mph SW5.8 kmh SW 8.0 mph12.9 kmh 29.66 in1004.4 mb 0.00 in0.0 mm 0.00 in0.0 mm 1.64 in41.7 mm
03:30 PM 56.0°F13.3°C 45.6°F7.6°C 68% 3.3 mph SW5.3 kmh SW 7.0 mph11.3 kmh 29.66 in1004.4 mb 0.00 in0.0 mm 0.00 in0.0 mm 1.64 in41.7 mm
03:25 PM 55.8°F13.2°C 45.4°F7.4°C 68% 3.0 mph SW4.8 kmh SW 7.0 mph11.3 kmh 29.66 in1004.4 mb 0.00 in0.0 mm 0.00 in0.0 mm 1.64 in41.7 mm
03:20 PM 55.6°F13.1°C 45.6°F7.6°C 69% 3.0 mph SW4.8 kmh SW 7.0 mph11.3 kmh 29.66 in1004.4 mb 0.00 in0.0 mm 0.00 in0.0 mm 1.64 in41.7 mm
03:15 PM 55.4°F13.0°C 45.8°F7.7°C 70% 3.2 mph WSW5.1 kmh WSW 8.0 mph12.9 kmh 29.65 in1004.1 mb 0.00 in0.0 mm 0.00 in0.0 mm 1.64 in41.7 mm
03:10 PM 55.0°F12.8°C 45.4°F7.4°C 70% 3.8 mph WSW6.1 kmh WSW 8.0 mph12.9 kmh 29.65 in1004.1 mb 0.00 in0.0 mm 0.00 in0.0 mm 1.64 in41.7 mm
03:05 PM 55.0°F12.8°C 45.8°F7.7°C 71% 4.6 mph SW7.4 kmh SW 10.0 mph16.1 kmh 29.65 in1004.1 mb 0.00 in0.0 mm 0.00 in0.0 mm 1.64 in41.7 mm
03:00 PM 55.1°F12.8°C 45.5°F7.5°C 70% 5.2 mph SW8.4 kmh SW 10.0 mph16.1 kmh 29.65 in1004.1 mb 0.00 in0.0 mm 0.00 in0.0 mm 1.64 in41.7 mm
02:55 PM 55.2°F12.9°C 45.6°F7.6°C 70% 5.6 mph WSW9.0 kmh WSW 10.0 mph16.1 kmh 29.65 in1004.1 mb 0.00 in0.0 mm 0.00 in0.0 mm 1.64 in41.7 mm
02:50 PM 55.3°F12.9°C 45.3°F7.4°C 69% 5.7 mph WSW9.2 kmh WSW 10.0 mph16.1 kmh 29.65 in1004.1 mb 0.00 in0.0 mm 0.00 in0.0 mm 1.64 in41.7 mm
02:45 PM 55.4°F13.0°C 45.4°F7.4°C 69% 5.5 mph WSW8.9 kmh WSW 10.0 mph16.1 kmh 29.65 in1004.1 mb 0.00 in0.0 mm 0.00 in0.0 mm 1.64 in41.7 mm
02:40 PM 55.5°F13.1°C 45.5°F7.5°C 69% 5.9 mph WSW9.5 kmh WSW 10.0 mph16.1 kmh 29.65 in1004.1 mb 0.00 in0.0 mm 0.00 in0.0 mm 1.64 in41.7 mm
02:35 PM 55.5°F13.1°C 45.9°F7.7°C 70% 6.7 mph WSW10.8 kmh WSW 13.0 mph20.9 kmh 29.65 in1004.1 mb 0.00 in0.0 mm 0.00 in0.0 mm 1.64 in41.7 mm
02:30 PM 55.6°F13.1°C 45.6°F7.6°C 69% 7.0 mph WSW11.3 kmh WSW 14.0 mph22.5 kmh 29.64 in1003.7 mb 0.00 in0.0 mm 0.00 in0.0 mm 1.64 in41.7 mm
02:25 PM 55.5°F13.1°C 45.1°F7.3°C 68% 7.0 mph WSW11.3 kmh WSW 16.0 mph25.7 kmh 29.64 in1003.7 mb 0.00 in0.0 mm 0.00 in0.0 mm 1.64 in41.7 mm
02:20 PM 55.4°F13.0°C 45.4°F7.4°C 69% 6.6 mph SW10.6 kmh SW 16.0 mph25.7 kmh 29.64 in1003.7 mb 0.00 in0.0 mm 0.00 in0.0 mm 1.64 in41.7 mm
02:15 PM 55.4°F13.0°C 46.2°F7.9°C 71% 5.7 mph SW9.2 kmh SW 16.0 mph25.7 kmh 29.64 in1003.7 mb 0.00 in0.0 mm 0.00 in0.0 mm 1.64 in41.7 mm
02:10 PM 55.4°F13.0°C 46.2°F7.9°C 71% 5.4 mph SW8.7 kmh SW 16.0 mph25.7 kmh 29.64 in1003.7 mb 0.00 in0.0 mm 0.00 in0.0 mm 1.64 in41.7 mm
02:05 PM 55.5°F13.1°C 47.0°F8.3°C 73% 6.4 mph SW10.3 kmh SW 11.0 mph17.7 kmh 29.64 in1003.7 mb 0.00 in0.0 mm 0.00 in0.0 mm 1.64 in41.7 mm
02:00 PM 55.3°F12.9°C 46.8°F8.2°C 73% 7.5 mph WSW12.1 kmh WSW 12.0 mph19.3 kmh 29.63 in1003.4 mb 0.00 in0.0 mm 0.00 in0.0 mm 1.64 in41.7 mm
01:55 PM 55.1°F12.8°C 46.2°F7.9°C 72% 7.5 mph SW12.1 kmh SW 12.0 mph19.3 kmh 29.63 in1003.4 mb 0.00 in0.0 mm 0.00 in0.0 mm 1.64 in41.7 mm
01:50 PM 54.9°F12.7°C 46.4°F8.0°C 73% 6.3 mph SW10.1 kmh SW 14.0 mph22.5 kmh 29.64 in1003.7 mb 0.00 in0.0 mm 0.00 in0.0 mm 1.64 in41.7 mm
01:45 PM 54.7°F12.6°C 46.9°F8.3°C 75% 5.3 mph SW8.5 kmh SW 14.0 mph22.5 kmh 29.63 in1003.4 mb 0.00 in0.0 mm 0.00 in0.0 mm 1.64 in41.7 mm
01:40 PM 54.5°F12.5°C 47.8°F8.8°C 78% 5.1 mph SW8.2 kmh SW 12.0 mph19.3 kmh 29.63 in1003.4 mb 0.00 in0.0 mm 0.00 in0.0 mm 1.64 in41.7 mm
01:35 PM 54.3°F12.4°C 48.3°F9.1°C 80% 5.5 mph SW8.9 kmh SW 14.0 mph22.5 kmh 29.63 in1003.4 mb 0.00 in0.0 mm 0.00 in0.0 mm 1.64 in41.7 mm
01:30 PM 54.1°F12.3°C 48.1°F8.9°C 80% 5.9 mph SW9.5 kmh SW 14.0 mph22.5 kmh 29.63 in1003.4 mb 0.00 in0.0 mm 0.00 in0.0 mm 1.64 in41.7 mm
01:25 PM 54.0°F12.2°C 48.0°F8.9°C 80% 6.3 mph SW10.1 kmh SW 13.0 mph20.9 kmh 29.62 in1003.0 mb 0.00 in0.0 mm 0.00 in0.0 mm 1.64 in41.7 mm
01:20 PM 53.9°F12.2°C 48.2°F9.0°C 81% 6.8 mph SW10.9 kmh SW 12.0 mph19.3 kmh 29.62 in1003.0 mb 0.00 in0.0 mm 0.00 in0.0 mm 1.64 in41.7 mm
01:15 PM 53.8°F12.1°C 48.1°F8.9°C 81% 7.3 mph SW11.7 kmh SW 14.0 mph22.5 kmh 29.62 in1003.0 mb 0.00 in0.0 mm 0.00 in0.0 mm 1.64 in41.7 mm
01:10 PM 53.7°F12.1°C 48.0°F8.9°C 81% 7.4 mph SW11.9 kmh SW 14.0 mph22.5 kmh 29.62 in1003.0 mb 0.00 in0.0 mm 0.00 in0.0 mm 1.64 in41.7 mm
01:05 PM 53.7°F12.1°C 47.7°F8.7°C 80% 7.4 mph SW11.9 kmh SW 14.0 mph22.5 kmh 29.62 in1003.0 mb 0.00 in0.0 mm 0.00 in0.0 mm 1.64 in41.7 mm
01:00 PM 53.7°F12.1°C 47.7°F8.7°C 80% 6.9 mph SW11.1 kmh SW 14.0 mph22.5 kmh 29.62 in1003.0 mb 0.00 in0.0 mm 0.00 in0.0 mm 1.64 in41.7 mm
12:55 PM 53.7°F12.1°C 47.7°F8.7°C 80% 6.4 mph SW10.3 kmh SW 14.0 mph22.5 kmh 29.62 in1003.0 mb 0.00 in0.0 mm 0.00 in0.0 mm 1.64 in41.7 mm
12:50 PM 53.7°F12.1°C 48.0°F8.9°C 81% 6.5 mph SW10.5 kmh SW 13.0 mph20.9 kmh 29.62 in1003.0 mb 0.00 in0.0 mm 0.00 in0.0 mm 1.64 in41.7 mm
12:45 PM 53.6°F12.0°C 47.9°F8.8°C 81% 5.5 mph SW8.9 kmh SW 15.0 mph24.1 kmh 29.62 in1003.0 mb 0.00 in0.0 mm 0.00 in0.0 mm 1.64 in41.7 mm
12:40 PM 53.6°F12.0°C 48.6°F9.2°C 83% 4.4 mph SW7.1 kmh SW 15.0 mph24.1 kmh 29.62 in1003.0 mb 0.00 in0.0 mm 0.00 in0.0 mm 1.64 in41.7 mm
12:35 PM 53.7°F12.1°C 49.6°F9.8°C 86% 4.0 mph SW6.4 kmh SW 8.0 mph12.9 kmh 29.62 in1003.0 mb 0.00 in0.0 mm 0.00 in0.0 mm 1.64 in41.7 mm
12:30 PM 53.7°F12.1°C 49.6°F9.8°C 86% 3.6 mph SW5.8 kmh SW 8.0 mph12.9 kmh 29.61 in1002.7 mb 0.01 in0.3 mm 0.00 in0.0 mm 1.64 in41.7 mm
12:25 PM 53.6°F12.0°C 49.2°F9.6°C 85% 3.0 mph SW4.8 kmh SW 8.0 mph12.9 kmh 29.61 in1002.7 mb 0.01 in0.3 mm 0.00 in0.0 mm 1.64 in41.7 mm
12:20 PM 53.7°F12.1°C 49.6°F9.8°C 86% 3.2 mph WSW5.1 kmh WSW 7.0 mph11.3 kmh 29.61 in1002.7 mb 0.01 in0.3 mm 0.00 in0.0 mm 1.64 in41.7 mm
12:15 PM 53.6°F12.0°C 49.5°F9.7°C 86% 4.1 mph WSW6.6 kmh WSW 6.0 mph9.7 kmh 29.60 in1002.4 mb 0.01 in0.3 mm 0.00 in0.0 mm 1.64 in41.7 mm
12:10 PM 53.6°F12.0°C 49.2°F9.6°C 85% 5.0 mph SW8.0 kmh SW 11.0 mph17.7 kmh 29.60 in1002.4 mb 0.01 in0.3 mm 0.00 in0.0 mm 1.64 in41.7 mm
12:05 PM 53.6°F12.0°C 49.5°F9.7°C 86% 6.1 mph SW9.8 kmh SW 11.0 mph17.7 kmh 29.60 in1002.4 mb 0.01 in0.3 mm 0.00 in0.0 mm 1.64 in41.7 mm
12:00 PM 53.6°F12.0°C 49.5°F9.7°C 86% 6.5 mph SW10.5 kmh SW 12.0 mph19.3 kmh 29.60 in1002.4 mb 0.02 in0.5 mm 0.00 in0.0 mm 1.64 in41.7 mm
11:55 AM 53.6°F12.0°C 49.5°F9.7°C 86% 6.1 mph SW9.8 kmh SW 13.0 mph20.9 kmh 29.60 in1002.4 mb 0.04 in1.0 mm 0.00 in0.0 mm 1.64 in41.7 mm
11:50 AM 53.6°F12.0°C 50.1°F10.1°C 88% 5.2 mph SW8.4 kmh SW 14.0 mph22.5 kmh 29.60 in1002.4 mb 0.11 in2.8 mm 0.00 in0.0 mm 1.64 in41.7 mm
11:45 AM 53.7°F12.1°C 50.8°F10.4°C 90% 3.5 mph SW5.6 kmh SW 14.0 mph22.5 kmh 29.60 in1002.4 mb 0.13 in3.3 mm 0.00 in0.0 mm 1.64 in41.7 mm
11:40 AM 53.6°F12.0°C 50.7°F10.4°C 90% 1.9 mph SW3.1 kmh SW 9.0 mph14.5 kmh 29.59 in1002.0 mb 0.13 in3.3 mm 0.00 in0.0 mm 1.64 in41.7 mm
11:35 AM 53.6°F12.0°C 50.4°F10.2°C 89% 1.6 mph SW2.6 kmh SW 7.0 mph11.3 kmh 29.59 in1002.0 mb 0.13 in3.3 mm 0.12 in3.0 mm 1.64 in41.7 mm
11:30 AM 53.5°F11.9°C 50.3°F10.2°C 89% 1.3 mph SW2.1 kmh SW 8.0 mph12.9 kmh 29.59 in1002.0 mb 0.12 in3.0 mm 0.00 in0.0 mm 1.63 in41.4 mm
11:25 AM 53.5°F11.9°C 50.0°F10.0°C 88% 0.4 mph SW0.6 kmh SW 8.0 mph12.9 kmh 29.58 in1001.7 mb 0.12 in3.0 mm 0.00 in0.0 mm 1.63 in41.4 mm
11:20 AM 53.6°F12.0°C 50.1°F10.1°C 88% 1.0 mph SW1.6 kmh SW 4.0 mph6.4 kmh 29.58 in1001.7 mb 0.12 in3.0 mm 0.00 in0.0 mm 1.63 in41.4 mm
11:15 AM 53.7°F12.1°C 50.2°F10.1°C 88% 2.4 mph SW3.9 kmh SW 6.0 mph9.7 kmh 29.58 in1001.7 mb 0.12 in3.0 mm 0.00 in0.0 mm 1.63 in41.4 mm
11:10 AM 53.8°F12.1°C 50.0°F10.0°C 87% 4.4 mph SW7.1 kmh SW 6.0 mph9.7 kmh 29.58 in1001.7 mb 0.12 in3.0 mm 0.00 in0.0 mm 1.63 in41.4 mm
11:05 AM 54.0°F12.2°C 50.2°F10.1°C 87% 7.5 mph SSW12.1 kmh SSW 11.0 mph17.7 kmh 29.57 in1001.4 mb 0.12 in3.0 mm 0.12 in3.0 mm 1.63 in41.4 mm
11:00 AM 54.5°F12.5°C 50.1°F10.1°C 85% 9.1 mph SSW14.6 kmh SSW 18.0 mph29.0 kmh 29.57 in1001.4 mb 0.11 in2.8 mm 0.02 in0.5 mm 1.62 in41.1 mm
10:55 AM 55.8°F13.2°C 49.7°F9.8°C 80% 7.0 mph SW11.3 kmh SW 24.0 mph38.6 kmh 29.57 in1001.4 mb 0.09 in2.3 mm 0.96 in24.4 mm 1.60 in40.6 mm
10:50 AM 58.2°F14.6°C 50.0°F10.0°C 74% 4.1 mph SW6.6 kmh SW 24.0 mph38.6 kmh 29.56 in1001.0 mb 0.01 in0.3 mm 0.12 in3.0 mm 1.52 in38.6 mm
10:45 AM 59.4°F15.2°C 50.4°F10.2°C 72% 3.2 mph SW5.1 kmh SW 16.0 mph25.7 kmh 29.54 in1000.3 mb 0.00 in0.0 mm 0.00 in0.0 mm 1.51 in38.4 mm
10:40 AM 59.6°F15.3°C 50.6°F10.3°C 72% 3.8 mph SW6.1 kmh SW 11.0 mph17.7 kmh 29.54 in1000.3 mb 0.00 in0.0 mm 0.00 in0.0 mm 1.51 in38.4 mm
10:35 AM 59.7°F15.4°C 50.7°F10.4°C 72% 4.7 mph SW7.6 kmh SW 13.0 mph20.9 kmh 29.54 in1000.3 mb 0.00 in0.0 mm 0.00 in0.0 mm 1.51 in38.4 mm
10:30 AM 59.6°F15.3°C 50.6°F10.3°C 72% 5.2 mph SSW8.4 kmh SSW 13.0 mph20.9 kmh 29.55 in1000.7 mb 0.00 in0.0 mm 0.00 in0.0 mm 1.51 in38.4 mm
10:25 AM 59.7°F15.4°C 50.3°F10.2°C 71% 5.5 mph SSW8.9 kmh SSW 12.0 mph19.3 kmh 29.55 in1000.7 mb 0.00 in0.0 mm 0.00 in0.0 mm 1.51 in38.4 mm
10:20 AM 60.0°F15.6°C 50.6°F10.3°C 71% 5.8 mph SSW9.3 kmh SSW 15.0 mph24.1 kmh 29.55 in1000.7 mb 0.00 in0.0 mm 0.00 in0.0 mm 1.51 in38.4 mm
10:15 AM 60.3°F15.7°C 50.9°F10.5°C 71% 5.9 mph SSW9.5 kmh SSW 15.0 mph24.1 kmh 29.54 in1000.3 mb 0.00 in0.0 mm 0.00 in0.0 mm 1.51 in38.4 mm
10:10 AM 60.7°F15.9°C 51.2°F10.7°C 71% 4.7 mph SSW7.6 kmh SSW 16.0 mph25.7 kmh 29.54 in1000.3 mb 0.00 in0.0 mm 0.00 in0.0 mm 1.51 in38.4 mm
10:05 AM 60.8°F16.0°C 51.7°F10.9°C 72% 3.4 mph SW5.5 kmh SW 16.0 mph25.7 kmh 29.54 in1000.3 mb 0.00 in0.0 mm 0.00 in0.0 mm 1.51 in38.4 mm
10:00 AM 60.5°F15.8°C 51.8°F11.0°C 73% 2.8 mph SW4.5 kmh SW 11.0 mph17.7 kmh 29.53 in1000.0 mb 0.00 in0.0 mm 0.00 in0.0 mm 1.51 in38.4 mm
09:55 AM 60.3°F15.7°C 52.3°F11.3°C 75% 2.3 mph WSW3.7 kmh WSW 11.0 mph17.7 kmh 29.53 in1000.0 mb 0.00 in0.0 mm 0.00 in0.0 mm 1.51 in38.4 mm
09:50 AM 60.0°F15.6°C 52.4°F11.3°C 76% 2.0 mph SW3.2 kmh SW 11.0 mph17.7 kmh 29.53 in1000.0 mb 0.00 in0.0 mm 0.00 in0.0 mm 1.51 in38.4 mm
09:45 AM 59.7°F15.4°C 52.5°F11.4°C 77% 2.0 mph SW3.2 kmh SW 8.0 mph12.9 kmh 29.53 in1000.0 mb 0.00 in0.0 mm 0.00 in0.0 mm 1.51 in38.4 mm
09:40 AM 59.5°F15.3°C 52.6°F11.4°C 78% 2.1 mph SW3.4 kmh SW 8.0 mph12.9 kmh 29.53 in1000.0 mb 0.00 in0.0 mm 0.00 in0.0 mm 1.51 in38.4 mm
09:35 AM 59.3°F15.2°C 52.4°F11.3°C 78% 2.5 mph SW4.0 kmh SW 10.0 mph16.1 kmh 29.53 in1000.0 mb 0.00 in0.0 mm 0.00 in0.0 mm 1.51 in38.4 mm
09:30 AM 59.1°F15.1°C 52.6°F11.4°C 79% 2.5 mph NE4.0 kmh NE 10.0 mph16.1 kmh 29.53 in1000.0 mb 0.00 in0.0 mm 0.00 in0.0 mm 1.51 in38.4 mm
09:25 AM 59.0°F15.0°C 52.5°F11.4°C 79% 2.1 mph NE3.4 kmh NE 10.0 mph16.1 kmh 29.52 in999.7 mb 0.00 in0.0 mm 0.00 in0.0 mm 1.51 in38.4 mm
09:20 AM 59.0°F15.0°C 52.8°F11.6°C 80% 2.0 mph NNE3.2 kmh NNE 6.0 mph9.7 kmh 29.52 in999.7 mb 0.00 in0.0 mm 0.00 in0.0 mm 1.51 in38.4 mm
09:15 AM 58.9°F14.9°C 53.1°F11.7°C 81% 2.0 mph ENE3.2 kmh ENE 9.0 mph14.5 kmh 29.53 in1000.0 mb 0.00 in0.0 mm 0.00 in0.0 mm 1.51 in38.4 mm
09:10 AM 58.8°F14.9°C 53.0°F11.7°C 81% 2.1 mph ESE3.4 kmh ESE 9.0 mph14.5 kmh 29.53 in1000.0 mb 0.00 in0.0 mm 0.00 in0.0 mm 1.51 in38.4 mm
09:05 AM 58.4°F14.7°C 52.6°F11.4°C 81% 2.3 mph ENE3.7 kmh ENE 7.0 mph11.3 kmh 29.53 in1000.0 mb 0.00 in0.0 mm 0.00 in0.0 mm 1.51 in38.4 mm
09:00 AM 58.2°F14.6°C 52.7°F11.5°C 82% 2.2 mph NE3.5 kmh NE 11.0 mph17.7 kmh 29.52 in999.7 mb 0.00 in0.0 mm 0.00 in0.0 mm 1.51 in38.4 mm
08:55 AM 57.8°F14.3°C 52.7°F11.5°C 83% 1.7 mph NE2.7 kmh NE 11.0 mph17.7 kmh 29.52 in999.7 mb 0.00 in0.0 mm 0.00 in0.0 mm 1.51 in38.4 mm
08:50 AM 57.3°F14.1°C 52.5°F11.4°C 84% 1.7 mph NE2.7 kmh NE 9.0 mph14.5 kmh 29.52 in999.7 mb 0.02 in0.5 mm 0.00 in0.0 mm 1.51 in38.4 mm
08:45 AM 57.0°F13.9°C 52.5°F11.4°C 85% 2.0 mph NE3.2 kmh NE 6.0 mph9.7 kmh 29.51 in999.3 mb 0.02 in0.5 mm 0.00 in0.0 mm 1.51 in38.4 mm
08:40 AM 56.8°F13.8°C 52.3°F11.3°C 85% 2.0 mph NE3.2 kmh NE 7.0 mph11.3 kmh 29.51 in999.3 mb 0.02 in0.5 mm 0.00 in0.0 mm 1.51 in38.4 mm
08:35 AM 56.7°F13.7°C 52.2°F11.2°C 85% 2.0 mph NNE3.2 kmh NNE 7.0 mph11.3 kmh 29.51 in999.3 mb 0.02 in0.5 mm 0.00 in0.0 mm 1.51 in38.4 mm
08:30 AM 56.7°F13.7°C 52.2°F11.2°C 85% 1.7 mph NE2.7 kmh NE 12.0 mph19.3 kmh 29.50 in999.0 mb 0.02 in0.5 mm 0.00 in0.0 mm 1.51 in38.4 mm
08:25 AM 56.5°F13.6°C 52.4°F11.3°C 86% 1.2 mph NE1.9 kmh NE 12.0 mph19.3 kmh 29.50 in999.0 mb 0.02 in0.5 mm 0.00 in0.0 mm 1.51 in38.4 mm
08:20 AM 56.2°F13.4°C 52.1°F11.2°C 86% 1.0 mph W1.6 kmh W 13.0 mph20.9 kmh 29.50 in999.0 mb 0.02 in0.5 mm 0.00 in0.0 mm 1.51 in38.4 mm
08:15 AM 56.2°F13.4°C 52.1°F11.2°C 86% 1.1 mph WSW1.8 kmh WSW 13.0 mph20.9 kmh 29.50 in999.0 mb 0.02 in0.5 mm 0.00 in0.0 mm 1.51 in38.4 mm
08:10 AM 56.1°F13.4°C 51.7°F10.9°C 85% 1.8 mph WSW2.9 kmh WSW 4.0 mph6.4 kmh 29.50 in999.0 mb 0.03 in0.8 mm 0.00 in0.0 mm 1.51 in38.4 mm
08:05 AM 56.4°F13.6°C 51.6°F10.9°C 84% 2.8 mph SW4.5 kmh SW 10.0 mph16.1 kmh 29.50 in999.0 mb 0.03 in0.8 mm 0.00 in0.0 mm 1.51 in38.4 mm
08:00 AM 56.8°F13.8°C 51.7°F10.9°C 83% 3.6 mph SW5.8 kmh SW 10.0 mph16.1 kmh 29.50 in999.0 mb 0.03 in0.8 mm 0.00 in0.0 mm 1.51 in38.4 mm
07:55 AM 57.2°F14.0°C 51.8°F11.0°C 82% 4.0 mph SW6.4 kmh SW 10.0 mph16.1 kmh 29.50 in999.0 mb 0.03 in0.8 mm 0.24 in6.1 mm 1.51 in38.4 mm
07:50 AM 57.5°F14.2°C 51.7°F10.9°C 81% 3.7 mph NE6.0 kmh NE 19.0 mph30.6 kmh 29.50 in999.0 mb 0.01 in0.3 mm 0.00 in0.0 mm 1.49 in37.8 mm
07:45 AM 57.5°F14.2°C 51.4°F10.8°C 80% 3.5 mph ENE5.6 kmh ENE 19.0 mph30.6 kmh 29.49 in998.6 mb 0.01 in0.3 mm 0.00 in0.0 mm 1.49 in37.8 mm
07:40 AM 57.2°F14.0°C 51.1°F10.6°C 80% 4.0 mph ENE6.4 kmh ENE 17.0 mph27.4 kmh 29.48 in998.3 mb 0.01 in0.3 mm 0.00 in0.0 mm 1.49 in37.8 mm
07:35 AM 57.1°F13.9°C 51.0°F10.6°C 80% 5.3 mph NE8.5 kmh NE 17.0 mph27.4 kmh 29.48 in998.3 mb 0.01 in0.3 mm 0.00 in0.0 mm 1.49 in37.8 mm
07:30 AM 56.9°F13.8°C 51.1°F10.6°C 81% 8.5 mph NE13.7 kmh NE 16.0 mph25.7 kmh 29.48 in998.3 mb 0.01 in0.3 mm 0.00 in0.0 mm 1.49 in37.8 mm
07:25 AM 56.8°F13.8°C 51.0°F10.6°C 81% 11.4 mph NE18.3 kmh NE 21.0 mph33.8 kmh 29.48 in998.3 mb 0.01 in0.3 mm 0.00 in0.0 mm 1.49 in37.8 mm
07:20 AM 56.7°F13.7°C 51.3°F10.7°C 82% 11.9 mph NE19.2 kmh NE 23.0 mph37.0 kmh 29.48 in998.3 mb 0.01 in0.3 mm 0.00 in0.0 mm 1.49 in37.8 mm
07:15 AM 55.1°F12.8°C 51.9°F11.1°C 89% 11.3 mph NE18.2 kmh NE 23.0 mph37.0 kmh 29.47 in998.0 mb 0.01 in0.3 mm 0.12 in3.0 mm 1.49 in37.8 mm
07:10 AM 54.1°F12.3°C 51.8°F11.0°C 92% 11.5 mph NE18.5 kmh NE 20.0 mph32.2 kmh 29.47 in998.0 mb 0.00 in0.0 mm 0.00 in0.0 mm 1.48 in37.6 mm
07:05 AM 53.4°F11.9°C 51.4°F10.8°C 93% 12.2 mph NE19.6 kmh NE 20.0 mph32.2 kmh 29.47 in998.0 mb 0.00 in0.0 mm 0.00 in0.0 mm 1.48 in37.6 mm
07:00 AM 52.9°F11.6°C 50.9°F10.5°C 93% 11.9 mph NE19.2 kmh NE 18.0 mph29.0 kmh 29.49 in998.6 mb 0.00 in0.0 mm 0.00 in0.0 mm 1.48 in37.6 mm
06:55 AM 52.5°F11.4°C 50.8°F10.4°C 94% 10.7 mph NE17.2 kmh NE 20.0 mph32.2 kmh 29.50 in999.0 mb 0.01 in0.3 mm 0.00 in0.0 mm 1.48 in37.6 mm
06:50 AM 51.8°F11.0°C 50.1°F10.1°C 94% 8.8 mph NE14.2 kmh NE 20.0 mph32.2 kmh 29.50 in999.0 mb 0.05 in1.3 mm 0.00 in0.0 mm 1.48 in37.6 mm
06:45 AM 51.0°F10.6°C 49.6°F9.8°C 95% 6.5 mph NE10.5 kmh NE 22.0 mph35.4 kmh 29.50 in999.0 mb 0.07 in1.8 mm 0.00 in0.0 mm 1.48 in37.6 mm
06:40 AM 50.2°F10.1°C 49.1°F9.5°C 96% 5.0 mph NE8.0 kmh NE 22.0 mph35.4 kmh 29.50 in999.0 mb 0.09 in2.3 mm 0.00 in0.0 mm 1.48 in37.6 mm
06:35 AM 49.7°F9.8°C 48.6°F9.2°C 96% 4.0 mph NE6.4 kmh NE 15.0 mph24.1 kmh 29.49 in998.6 mb 0.10 in2.5 mm 0.00 in0.0 mm 1.48 in37.6 mm
06:30 AM 49.2°F9.6°C 47.8°F8.8°C 95% 4.8 mph NE7.7 kmh NE 15.0 mph24.1 kmh 29.48 in998.3 mb 0.13 in3.3 mm 0.00 in0.0 mm 1.48 in37.6 mm
06:25 AM 49.2°F9.6°C 47.8°F8.8°C 95% 7.7 mph NE12.4 kmh NE 16.0 mph25.7 kmh 29.51 in999.3 mb 0.14 in3.6 mm 0.00 in0.0 mm 1.48 in37.6 mm
06:20 AM 49.4°F9.7°C 48.0°F8.9°C 95% 9.3 mph NE15.0 kmh NE 16.0 mph25.7 kmh 29.51 in999.3 mb 0.16 in4.1 mm 0.00 in0.0 mm 1.48 in37.6 mm
06:15 AM 49.2°F9.6°C 47.8°F8.8°C 95% 8.2 mph NE13.2 kmh NE 18.0 mph29.0 kmh 29.52 in999.7 mb 0.18 in4.6 mm 0.00 in0.0 mm 1.48 in37.6 mm
06:10 AM 49.3°F9.6°C 48.2°F9.0°C 96% 6.6 mph NE10.6 kmh NE 18.0 mph29.0 kmh 29.52 in999.7 mb 0.20 in5.1 mm 0.00 in0.0 mm 1.48 in37.6 mm
06:05 AM 49.3°F9.6°C 48.5°F9.2°C 97% 6.0 mph NE9.7 kmh NE 14.0 mph22.5 kmh 29.51 in999.3 mb 0.24 in6.1 mm 0.00 in0.0 mm 1.48 in37.6 mm
06:00 AM 48.7°F9.3°C 47.9°F8.8°C 97% 5.5 mph NE8.9 kmh NE 12.0 mph19.3 kmh 29.51 in999.3 mb 0.26 in6.6 mm 0.00 in0.0 mm 1.48 in37.6 mm
05:55 AM 47.9°F8.8°C 47.1°F8.4°C 97% 3.8 mph NE6.1 kmh NE 12.0 mph19.3 kmh 29.51 in999.3 mb 0.32 in8.1 mm 0.12 in3.0 mm 1.47 in37.3 mm
05:50 AM 47.5°F8.6°C 46.7°F8.2°C 97% 1.7 mph NE2.7 kmh NE 9.0 mph14.5 kmh 29.54 in1000.3 mb 0.31 in7.9 mm 0.00 in0.0 mm 1.43 in36.3 mm
05:45 AM 47.1°F8.4°C 46.0°F7.8°C 96% 1.1 mph NE1.8 kmh NE 8.0 mph12.9 kmh 29.55 in1000.7 mb 0.31 in7.9 mm 0.00 in0.0 mm 1.41 in35.8 mm
05:40 AM 46.9°F8.3°C 45.8°F7.7°C 96% 2.0 mph NE3.2 kmh NE 4.0 mph6.4 kmh 29.56 in1001.0 mb 0.31 in7.9 mm 0.00 in0.0 mm 1.39 in35.3 mm
05:35 AM 46.9°F8.3°C 45.8°F7.7°C 96% 2.6 mph NE4.2 kmh NE 5.0 mph8.0 kmh 29.56 in1001.0 mb 0.31 in7.9 mm 0.00 in0.0 mm 1.38 in35.1 mm
05:30 AM 47.1°F8.4°C 46.0°F7.8°C 96% 1.8 mph NE2.9 kmh NE 6.0 mph9.7 kmh 29.56 in1001.0 mb 0.31 in7.9 mm 0.12 in3.0 mm 1.35 in34.3 mm
05:25 AM 47.2°F8.4°C 45.8°F7.7°C 95% 0.6 mph NE1.0 kmh NE 6.0 mph9.7 kmh 29.57 in1001.4 mb 0.30 in7.6 mm 0.00 in0.0 mm 1.34 in34.0 mm
05:20 AM 47.5°F8.6°C 46.1°F7.8°C 95% 0.3 mph NE0.5 kmh NE 4.0 mph6.4 kmh 29.57 in1001.4 mb 0.30 in7.6 mm 0.12 in3.0 mm 1.32 in33.5 mm
05:15 AM 47.6°F8.7°C 46.2°F7.9°C 95% 0.8 mph NNE1.3 kmh NNE 2.0 mph3.2 kmh 29.57 in1001.4 mb 0.29 in7.4 mm 0.12 in3.0 mm 1.30 in33.0 mm
05:10 AM 47.9°F8.8°C 46.8°F8.2°C 96% 1.3 mph NE2.1 kmh NE 6.0 mph9.7 kmh 29.57 in1001.4 mb 0.28 in7.1 mm 0.36 in9.1 mm 1.28 in32.5 mm
05:05 AM 47.7°F8.7°C 46.3°F7.9°C 95% 1.3 mph NNE2.1 kmh NNE 6.0 mph9.7 kmh 29.56 in1001.0 mb 0.25 in6.4 mm 0.24 in6.1 mm 1.24 in31.5 mm
05:00 AM 47.8°F8.8°C 46.4°F8.0°C 95% 1.1 mph WSW1.8 kmh WSW 6.0 mph9.7 kmh 29.58 in1001.7 mb 0.23 in5.8 mm 0.04 in1.0 mm 1.20 in30.5 mm
04:55 AM 47.9°F8.8°C 46.5°F8.1°C 95% 2.2 mph WSW3.5 kmh WSW 6.0 mph9.7 kmh 29.58 in1001.7 mb 0.19 in4.8 mm 0.24 in6.1 mm 1.15 in29.2 mm
04:50 AM 48.1°F8.9°C 46.7°F8.2°C 95% 3.9 mph NE6.3 kmh NE 7.0 mph11.3 kmh 29.55 in1000.7 mb 0.17 in4.3 mm 0.12 in3.0 mm 1.12 in28.4 mm
04:45 AM 48.4°F9.1°C 47.0°F8.3°C 95% 5.3 mph NE8.5 kmh NE 11.0 mph17.7 kmh 29.54 in1000.3 mb 0.16 in4.1 mm 0.00 in0.0 mm 1.09 in27.7 mm
04:40 AM 48.4°F9.1°C 47.0°F8.3°C 95% 6.9 mph NE11.1 kmh NE 11.0 mph17.7 kmh 29.55 in1000.7 mb 0.16 in4.1 mm 0.00 in0.0 mm 1.07 in27.2 mm
04:35 AM 48.4°F9.1°C 47.0°F8.3°C 95% 7.5 mph NE12.1 kmh NE 13.0 mph20.9 kmh 29.55 in1000.7 mb 0.17 in4.3 mm 0.00 in0.0 mm 1.06 in26.9 mm
04:30 AM 48.7°F9.3°C 47.6°F8.7°C 96% 6.1 mph NE9.8 kmh NE 14.0 mph22.5 kmh 29.55 in1000.7 mb 0.17 in4.3 mm 0.00 in0.0 mm 1.05 in26.7 mm
04:25 AM 47.7°F8.7°C 46.6°F8.1°C 96% 5.5 mph NE8.9 kmh NE 14.0 mph22.5 kmh 29.55 in1000.7 mb 0.20 in5.1 mm 0.00 in0.0 mm 1.04 in26.4 mm
04:20 AM 47.5°F8.6°C 46.1°F7.8°C 95% 6.4 mph NE10.3 kmh NE 15.0 mph24.1 kmh 29.55 in1000.7 mb 0.20 in5.1 mm 0.00 in0.0 mm 1.02 in25.9 mm
04:15 AM 47.7°F8.7°C 46.6°F8.1°C 96% 6.8 mph NE10.9 kmh NE 15.0 mph24.1 kmh 29.56 in1001.0 mb 0.20 in5.1 mm 0.00 in0.0 mm 1.01 in25.7 mm
04:10 AM 46.8°F8.2°C 45.4°F7.4°C 95% 6.3 mph NE10.1 kmh NE 15.0 mph24.1 kmh 29.56 in1001.0 mb 0.20 in5.1 mm 0.00 in0.0 mm 1.00 in25.4 mm
04:05 AM 46.6°F8.1°C 45.0°F7.2°C 94% 6.0 mph NE9.7 kmh NE 14.0 mph22.5 kmh 29.56 in1001.0 mb 0.20 in5.1 mm 0.00 in0.0 mm 0.98 in24.9 mm
04:00 AM 47.1°F8.4°C 45.5°F7.5°C 94% 7.1 mph NE11.4 kmh NE 14.0 mph22.5 kmh 29.55 in1000.7 mb 0.20 in5.1 mm 0.00 in0.0 mm 0.98 in24.9 mm
03:55 AM 47.2°F8.4°C 46.1°F7.8°C 96% 8.4 mph NE13.5 kmh NE 14.0 mph22.5 kmh 29.56 in1001.0 mb 0.21 in5.3 mm 0.00 in0.0 mm 0.96 in24.4 mm
03:50 AM 46.2°F7.9°C 44.8°F7.1°C 95% 7.3 mph NE11.7 kmh NE 21.0 mph33.8 kmh 29.55 in1000.7 mb 0.22 in5.6 mm 0.00 in0.0 mm 0.94 in23.9 mm
03:45 AM 46.0°F7.8°C 44.6°F7.0°C 95% 5.0 mph NE8.0 kmh NE 21.0 mph33.8 kmh 29.56 in1001.0 mb 0.23 in5.8 mm 0.00 in0.0 mm 0.93 in23.6 mm
03:40 AM 45.8°F7.7°C 44.2°F6.8°C 94% 4.4 mph NE7.1 kmh NE 17.0 mph27.4 kmh 29.56 in1001.0 mb 0.23 in5.8 mm 0.00 in0.0 mm 0.91 in23.1 mm
03:35 AM 45.7°F7.6°C 44.1°F6.7°C 94% 5.8 mph NE9.3 kmh NE 9.0 mph14.5 kmh 29.56 in1001.0 mb 0.24 in6.1 mm 0.12 in3.0 mm 0.90 in22.9 mm
03:30 AM 45.8°F7.7°C 44.4°F6.9°C 95% 7.7 mph NE12.4 kmh NE 13.0 mph20.9 kmh 29.58 in1001.7 mb 0.23 in5.8 mm 0.00 in0.0 mm 0.87 in22.1 mm
03:25 AM 45.6°F7.6°C 44.3°F6.8°C 95% 9.0 mph NE14.5 kmh NE 16.0 mph25.7 kmh 29.58 in1001.7 mb 0.23 in5.8 mm 0.00 in0.0 mm 0.84 in21.3 mm
03:20 AM 45.6°F7.6°C 44.0°F6.7°C 94% 10.1 mph NE16.3 kmh NE 19.0 mph30.6 kmh 29.58 in1001.7 mb 0.24 in6.1 mm 0.00 in0.0 mm 0.83 in21.1 mm
03:15 AM 45.7°F7.6°C 44.4°F6.9°C 95% 12.5 mph NE20.1 kmh NE 19.0 mph30.6 kmh 29.59 in1002.0 mb 0.24 in6.1 mm 0.00 in0.0 mm 0.81 in20.6 mm
03:10 AM 45.2°F7.3°C 43.6°F6.4°C 94% 14.3 mph NE23.0 kmh NE 23.0 mph37.0 kmh 29.59 in1002.0 mb 0.24 in6.1 mm 0.00 in0.0 mm 0.79 in20.1 mm
03:05 AM 44.8°F7.1°C 43.2°F6.2°C 94% 12.7 mph ENE20.4 kmh ENE 26.0 mph41.8 kmh 29.59 in1002.0 mb 0.24 in6.1 mm 0.00 in0.0 mm 0.78 in19.8 mm
03:00 AM 44.9°F7.2°C 43.3°F6.3°C 94% 11.1 mph ENE17.9 kmh ENE 26.0 mph41.8 kmh 29.58 in1001.7 mb 0.25 in6.4 mm 0.01 in0.3 mm 0.77 in19.6 mm
02:55 AM 45.0°F7.2°C 43.4°F6.3°C 94% 11.6 mph NE18.7 kmh NE 20.0 mph32.2 kmh 29.61 in1002.7 mb 0.24 in6.1 mm 0.00 in0.0 mm 0.75 in19.1 mm
02:50 AM 44.8°F7.1°C 43.2°F6.2°C 94% 11.8 mph NE19.0 kmh NE 21.0 mph33.8 kmh 29.61 in1002.7 mb 0.24 in6.1 mm 0.12 in3.0 mm 0.72 in18.3 mm
02:45 AM 44.6°F7.0°C 43.0°F6.1°C 94% 11.3 mph NE18.2 kmh NE 21.0 mph33.8 kmh 29.61 in1002.7 mb 0.23 in5.8 mm 0.00 in0.0 mm 0.70 in17.8 mm
02:40 AM 44.7°F7.1°C 43.1°F6.2°C 94% 10.6 mph NE17.1 kmh NE 22.0 mph35.4 kmh 29.62 in1003.0 mb 0.23 in5.8 mm 0.24 in6.1 mm 0.68 in17.3 mm
02:35 AM 44.7°F7.1°C 42.8°F6.0°C 93% 9.9 mph NE15.9 kmh NE 22.0 mph35.4 kmh 29.62 in1003.0 mb 0.21 in5.3 mm 0.00 in0.0 mm 0.65 in16.5 mm
02:30 AM 44.5°F6.9°C 42.9°F6.1°C 94% 9.7 mph NE15.6 kmh NE 17.0 mph27.4 kmh 29.62 in1003.0 mb 0.21 in5.3 mm 0.12 in3.0 mm 0.64 in16.3 mm
02:25 AM 44.5°F6.9°C 42.6°F5.9°C 93% 11.0 mph NE17.7 kmh NE 23.0 mph37.0 kmh 29.63 in1003.4 mb 0.20 in5.1 mm 0.12 in3.0 mm 0.61 in15.5 mm
02:20 AM 44.7°F7.1°C 43.1°F6.2°C 94% 12.1 mph NE19.5 kmh NE 23.0 mph37.0 kmh 29.64 in1003.7 mb 0.19 in4.8 mm 0.00 in0.0 mm 0.59 in15.0 mm
02:15 AM 44.9°F7.2°C 43.0°F6.1°C 93% 11.5 mph NE18.5 kmh NE 27.0 mph43.5 kmh 29.63 in1003.4 mb 0.19 in4.8 mm 0.00 in0.0 mm 0.57 in14.5 mm
02:10 AM 44.6°F7.0°C 43.0°F6.1°C 94% 11.7 mph NE18.8 kmh NE 27.0 mph43.5 kmh 29.62 in1003.0 mb 0.19 in4.8 mm 0.00 in0.0 mm 0.55 in14.0 mm
02:05 AM 44.1°F6.7°C 42.5°F5.8°C 94% 13.7 mph NE22.0 kmh NE 21.0 mph33.8 kmh 29.63 in1003.4 mb 0.20 in5.1 mm 0.00 in0.0 mm 0.54 in13.7 mm
02:00 AM 44.1°F6.7°C 42.5°F5.8°C 94% 14.9 mph NE24.0 kmh NE 31.0 mph49.9 kmh 29.63 in1003.4 mb 0.20 in5.1 mm 0.00 in0.0 mm 0.52 in13.2 mm
01:55 AM 44.3°F6.8°C 42.7°F5.9°C 94% 14.6 mph NE23.5 kmh NE 31.0 mph49.9 kmh 29.62 in1003.0 mb 0.24 in6.1 mm 0.00 in0.0 mm 0.50 in12.7 mm
01:50 AM 44.3°F6.8°C 42.7°F5.9°C 94% 14.3 mph NE23.0 kmh NE 27.0 mph43.5 kmh 29.62 in1003.0 mb 0.25 in6.4 mm 0.00 in0.0 mm 0.48 in12.2 mm
01:45 AM 44.0°F6.7°C 42.4°F5.8°C 94% 15.0 mph NE24.1 kmh NE 28.0 mph45.1 kmh 29.62 in1003.0 mb 0.27 in6.9 mm 0.12 in3.0 mm 0.46 in11.7 mm
01:40 AM 44.0°F6.7°C 42.4°F5.8°C 94% 15.3 mph NE24.6 kmh NE 28.0 mph45.1 kmh 29.62 in1003.0 mb 0.26 in6.6 mm 0.00 in0.0 mm 0.45 in11.4 mm
01:35 AM 44.1°F6.7°C 42.5°F5.8°C 94% 14.5 mph NE23.3 kmh NE 27.0 mph43.5 kmh 29.62 in1003.0 mb 0.29 in7.4 mm 0.00 in0.0 mm 0.44 in11.2 mm
01:30 AM 44.1°F6.7°C 42.5°F5.8°C 94% 13.6 mph NE21.9 kmh NE 27.0 mph43.5 kmh 29.62 in1003.0 mb 0.31 in7.9 mm 0.00 in0.0 mm 0.43 in10.9 mm
01:25 AM 44.1°F6.7°C 42.5°F5.8°C 94% 12.0 mph NE19.3 kmh NE 21.0 mph33.8 kmh 29.65 in1004.1 mb 0.31 in7.9 mm 0.00 in0.0 mm 0.41 in10.4 mm
01:20 AM 44.0°F6.7°C 42.4°F5.8°C 94% 9.5 mph ENE15.3 kmh ENE 20.0 mph32.2 kmh 29.65 in1004.1 mb 0.33 in8.4 mm 0.00 in0.0 mm 0.40 in10.2 mm
01:15 AM 44.3°F6.8°C 42.7°F5.9°C 94% 6.2 mph NE10.0 kmh NE 20.0 mph32.2 kmh 29.68 in1005.1 mb 0.33 in8.4 mm 0.12 in3.0 mm 0.39 in9.9 mm
01:10 AM 44.7°F7.1°C 43.1°F6.2°C 94% 3.3 mph NE5.3 kmh NE 17.0 mph27.4 kmh 29.70 in1005.8 mb 0.32 in8.1 mm 0.12 in3.0 mm 0.35 in8.9 mm
01:05 AM 45.2°F7.3°C 43.6°F6.4°C 94% 2.7 mph NE4.3 kmh NE 13.0 mph20.9 kmh 29.70 in1005.8 mb 0.31 in7.9 mm 0.00 in0.0 mm 0.33 in8.4 mm
01:00 AM 45.2°F7.3°C 43.9°F6.6°C 95% 3.6 mph NE5.8 kmh NE 11.0 mph17.7 kmh 29.70 in1005.8 mb 0.31 in7.9 mm 0.03 in0.8 mm 0.31 in7.9 mm
12:55 AM 44.8°F7.1°C 43.5°F6.4°C 95% 4.9 mph SW7.9 kmh SW 12.0 mph19.3 kmh 29.68 in1005.1 mb 0.28 in7.1 mm 0.24 in6.1 mm 0.27 in6.9 mm
12:50 AM 44.7°F7.1°C 43.1°F6.2°C 94% 5.7 mph ENE9.2 kmh ENE 19.0 mph30.6 kmh 29.67 in1004.7 mb 0.26 in6.6 mm 0.00 in0.0 mm 0.22 in5.6 mm
12:45 AM 44.8°F7.1°C 43.2°F6.2°C 94% 6.9 mph NE11.1 kmh NE 19.0 mph30.6 kmh 29.67 in1004.7 mb 0.26 in6.6 mm 0.00 in0.0 mm 0.20 in5.1 mm
12:40 AM 44.8°F7.1°C 43.2°F6.2°C 94% 10.8 mph NE17.4 kmh NE 19.0 mph30.6 kmh 29.65 in1004.1 mb 0.26 in6.6 mm 0.24 in6.1 mm 0.18 in4.6 mm
12:35 AM 44.9°F7.2°C 43.0°F6.1°C 93% 13.8 mph NE22.2 kmh NE 30.0 mph48.3 kmh 29.65 in1004.1 mb 0.24 in6.1 mm 0.12 in3.0 mm 0.14 in3.6 mm
12:30 AM 44.9°F7.2°C 43.0°F6.1°C 93% 14.3 mph NE23.0 kmh NE 30.0 mph48.3 kmh 29.61 in1002.7 mb 0.23 in5.8 mm 0.12 in3.0 mm 0.12 in3.0 mm
12:25 AM 45.1°F7.3°C 43.2°F6.2°C 93% 15.5 mph NE24.9 kmh NE 26.0 mph41.8 kmh 29.62 in1003.0 mb 0.22 in5.6 mm 0.24 in6.1 mm 0.09 in2.3 mm
12:20 AM 45.3°F7.4°C 43.4°F6.3°C 93% 16.4 mph NE26.4 kmh NE 32.0 mph51.5 kmh 29.63 in1003.4 mb 0.20 in5.1 mm 0.00 in0.0 mm 0.07 in1.8 mm
12:15 AM 45.6°F7.6°C 43.7°F6.5°C 93% 15.8 mph NE25.4 kmh NE 32.0 mph51.5 kmh 29.63 in1003.4 mb 0.21 in5.3 mm 0.12 in3.0 mm 0.06 in1.5 mm
12:10 AM 45.6°F7.6°C 43.4°F6.3°C 92% 14.1 mph NE22.7 kmh NE 29.0 mph46.7 kmh 29.63 in1003.4 mb 0.20 in5.1 mm 0.00 in0.0 mm 0.03 in0.8 mm
12:05 AM 45.6°F7.6°C 43.7°F6.5°C 93% 12.5 mph NE20.1 kmh NE 29.0 mph46.7 kmh 29.64 in1003.7 mb 0.20 in5.1 mm 0.12 in3.0 mm 0.02 in0.5 mm
12:00 AM 45.5°F7.5°C 43.6°F6.4°C 93% 12.8 mph NE20.6 kmh NE 29.0 mph46.7 kmh 29.64 in1003.7 mb 0.19 in4.8 mm 0.00 in0.0 mm 0.19 in4.8 mm